sensor_id;sensor_type;location;lat;lon;timestamp;temperature;humidity
55771;DHT22;41687;-33.234;-60.334;2022-07-19T00:01:06;10.60;56.50
55771;DHT22;41687;-33.234;-60.334;2022-07-19T00:03:35;10.60;57.50
55771;DHT22;41687;-33.234;-60.334;2022-07-19T00:06:03;10.60;58.40
55771;DHT22;41687;-33.234;-60.334;2022-07-19T00:08:31;10.60;57.00
55771;DHT22;41687;-33.234;-60.334;2022-07-19T00:10:58;10.50;57.40
55771;DHT22;41687;-33.234;-60.334;2022-07-19T00:13:26;10.50;57.90
55771;DHT22;41687;-33.234;-60.334;2022-07-19T00:15:56;10.50;57.20
55771;DHT22;41687;-33.234;-60.334;2022-07-19T00:18:25;10.40;56.60
55771;DHT22;41687;-33.234;-60.334;2022-07-19T00:20:52;10.40;56.50
55771;DHT22;41687;-33.234;-60.334;2022-07-19T00:23:20;10.30;56.30
55771;DHT22;41687;-33.234;-60.334;2022-07-19T00:25:48;10.30;56.80
55771;DHT22;41687;-33.234;-60.334;2022-07-19T00:28:16;10.20;56.20
55771;DHT22;41687;-33.234;-60.334;2022-07-19T00:30:44;10.20;56.20
55771;DHT22;41687;-33.234;-60.334;2022-07-19T00:33:11;10.10;56.10
55771;DHT22;41687;-33.234;-60.334;2022-07-19T00:35:39;10.00;56.10
55771;DHT22;41687;-33.234;-60.334;2022-07-19T00:38:10;10.00;55.70
55771;DHT22;41687;-33.234;-60.334;2022-07-19T00:40:37;9.90;55.50
55771;DHT22;41687;-33.234;-60.334;2022-07-19T00:43:05;9.80;55.40
55771;DHT22;41687;-33.234;-60.334;2022-07-19T00:45:34;9.80;55.00
55771;DHT22;41687;-33.234;-60.334;2022-07-19T00:48:02;9.70;54.80
55771;DHT22;41687;-33.234;-60.334;2022-07-19T00:50:30;9.70;54.40
55771;DHT22;41687;-33.234;-60.334;2022-07-19T00:53:00;9.60;53.90
55771;DHT22;41687;-33.234;-60.334;2022-07-19T00:55:33;9.60;54.00
55771;DHT22;41687;-33.234;-60.334;2022-07-19T00:58:02;9.50;54.10
55771;DHT22;41687;-33.234;-60.334;2022-07-19T01:00:32;9.50;54.40
55771;DHT22;41687;-33.234;-60.334;2022-07-19T01:03:01;9.50;53.90
55771;DHT22;41687;-33.234;-60.334;2022-07-19T01:05:29;9.40;54.00
55771;DHT22;41687;-33.234;-60.334;2022-07-19T01:07:58;9.40;53.80
55771;DHT22;41687;-33.234;-60.334;2022-07-19T01:10:27;9.40;53.90
55771;DHT22;41687;-33.234;-60.334;2022-07-19T01:12:55;9.30;53.80
55771;DHT22;41687;-33.234;-60.334;2022-07-19T01:15:25;9.20;53.60
55771;DHT22;41687;-33.234;-60.334;2022-07-19T01:17:55;9.20;53.60
55771;DHT22;41687;-33.234;-60.334;2022-07-19T01:20:23;9.10;54.40
55771;DHT22;41687;-33.234;-60.334;2022-07-19T01:22:52;9.00;54.00
55771;DHT22;41687;-33.234;-60.334;2022-07-19T01:25:23;9.00;54.20
55771;DHT22;41687;-33.234;-60.334;2022-07-19T01:27:51;9.00;53.60
55771;DHT22;41687;-33.234;-60.334;2022-07-19T01:30:22;8.90;53.60
55771;DHT22;41687;-33.234;-60.334;2022-07-19T01:32:52;8.80;53.80
55771;DHT22;41687;-33.234;-60.334;2022-07-19T01:35:19;8.80;53.80
55771;DHT22;41687;-33.234;-60.334;2022-07-19T01:37:48;8.70;53.80
55771;DHT22;41687;-33.234;-60.334;2022-07-19T01:40:17;8.70;54.50
55771;DHT22;41687;-33.234;-60.334;2022-07-19T01:42:47;8.60;53.90
55771;DHT22;41687;-33.234;-60.334;2022-07-19T01:45:15;8.60;53.80
55771;DHT22;41687;-33.234;-60.334;2022-07-19T01:47:43;8.60;53.40
55771;DHT22;41687;-33.234;-60.334;2022-07-19T01:50:13;8.60;53.50
55771;DHT22;41687;-33.234;-60.334;2022-07-19T01:52:42;8.50;53.70
55771;DHT22;41687;-33.234;-60.334;2022-07-19T01:55:10;8.50;53.60
55771;DHT22;41687;-33.234;-60.334;2022-07-19T01:57:37;8.40;53.70
55771;DHT22;41687;-33.234;-60.334;2022-07-19T02:00:06;8.30;53.80
55771;DHT22;41687;-33.234;-60.334;2022-07-19T02:02:39;8.30;53.70
55771;DHT22;41687;-33.234;-60.334;2022-07-19T02:05:07;8.30;53.10
55771;DHT22;41687;-33.234;-60.334;2022-07-19T02:07:35;8.20;53.60
55771;DHT22;41687;-33.234;-60.334;2022-07-19T02:10:04;8.20;53.70
55771;DHT22;41687;-33.234;-60.334;2022-07-19T02:12:32;8.10;53.60
55771;DHT22;41687;-33.234;-60.334;2022-07-19T02:15:00;8.00;53.60
55771;DHT22;41687;-33.234;-60.334;2022-07-19T02:17:28;8.00;53.60
55771;DHT22;41687;-33.234;-60.334;2022-07-19T02:19:57;8.00;53.60
55771;DHT22;41687;-33.234;-60.334;2022-07-19T02:22:24;7.90;53.80
55771;DHT22;41687;-33.234;-60.334;2022-07-19T02:24:52;7.90;53.30
55771;DHT22;41687;-33.234;-60.334;2022-07-19T02:27:20;7.90;53.70
55771;DHT22;41687;-33.234;-60.334;2022-07-19T02:29:49;7.80;53.80
55771;DHT22;41687;-33.234;-60.334;2022-07-19T02:32:16;7.80;53.90
55771;DHT22;41687;-33.234;-60.334;2022-07-19T02:34:44;7.80;53.70
55771;DHT22;41687;-33.234;-60.334;2022-07-19T02:37:12;7.70;53.90
55771;DHT22;41687;-33.234;-60.334;2022-07-19T02:39:40;7.70;53.90
55771;DHT22;41687;-33.234;-60.334;2022-07-19T02:42:07;7.50;54.10
55771;DHT22;41687;-33.234;-60.334;2022-07-19T02:44:35;7.40;54.60
55771;DHT22;41687;-33.234;-60.334;2022-07-19T02:47:03;7.50;54.40
55771;DHT22;41687;-33.234;-60.334;2022-07-19T02:49:31;7.50;54.40
55771;DHT22;41687;-33.234;-60.334;2022-07-19T02:51:59;7.50;54.30
55771;DHT22;41687;-33.234;-60.334;2022-07-19T02:54:26;7.50;54.70
55771;DHT22;41687;-33.234;-60.334;2022-07-19T02:56:54;7.50;54.40
55771;DHT22;41687;-33.234;-60.334;2022-07-19T02:59:22;7.40;54.40
55771;DHT22;41687;-33.234;-60.334;2022-07-19T03:01:50;7.40;54.40
55771;DHT22;41687;-33.234;-60.334;2022-07-19T03:04:18;7.40;54.20
55771;DHT22;41687;-33.234;-60.334;2022-07-19T03:06:46;7.40;54.50
55771;DHT22;41687;-33.234;-60.334;2022-07-19T03:09:14;7.40;54.40
55771;DHT22;41687;-33.234;-60.334;2022-07-19T03:11:42;7.40;54.30
55771;DHT22;41687;-33.234;-60.334;2022-07-19T03:14:10;7.40;54.40
55771;DHT22;41687;-33.234;-60.334;2022-07-19T03:16:37;7.30;54.40
55771;DHT22;41687;-33.234;-60.334;2022-07-19T03:19:05;7.30;54.40
55771;DHT22;41687;-33.234;-60.334;2022-07-19T03:21:35;7.20;54.60
55771;DHT22;41687;-33.234;-60.334;2022-07-19T03:24:03;7.30;54.50
55771;DHT22;41687;-33.234;-60.334;2022-07-19T03:26:30;7.30;54.60
55771;DHT22;41687;-33.234;-60.334;2022-07-19T03:28:59;7.30;54.50
55771;DHT22;41687;-33.234;-60.334;2022-07-19T03:31:26;7.30;54.60
55771;DHT22;41687;-33.234;-60.334;2022-07-19T03:33:54;7.30;54.60
55771;DHT22;41687;-33.234;-60.334;2022-07-19T03:36:22;7.30;54.50
55771;DHT22;41687;-33.234;-60.334;2022-07-19T03:38:50;7.30;54.70
55771;DHT22;41687;-33.234;-60.334;2022-07-19T03:41:17;7.30;54.60
55771;DHT22;41687;-33.234;-60.334;2022-07-19T03:43:45;7.20;54.50
55771;DHT22;41687;-33.234;-60.334;2022-07-19T03:46:13;7.10;54.50
55771;DHT22;41687;-33.234;-60.334;2022-07-19T03:48:41;7.10;54.70
55771;DHT22;41687;-33.234;-60.334;2022-07-19T03:51:09;7.10;54.90
55771;DHT22;41687;-33.234;-60.334;2022-07-19T03:53:36;7.00;55.00
55771;DHT22;41687;-33.234;-60.334;2022-07-19T03:56:04;7.00;55.10
55771;DHT22;41687;-33.234;-60.334;2022-07-19T03:58:33;6.90;55.10
55771;DHT22;41687;-33.234;-60.334;2022-07-19T04:01:00;6.90;55.20
55771;DHT22;41687;-33.234;-60.334;2022-07-19T04:03:28;6.80;55.20
55771;DHT22;41687;-33.234;-60.334;2022-07-19T04:05:56;6.80;55.30
55771;DHT22;41687;-33.234;-60.334;2022-07-19T04:08:24;6.70;55.50
55771;DHT22;41687;-33.234;-60.334;2022-07-19T04:10:52;6.70;55.30
55771;DHT22;41687;-33.234;-60.334;2022-07-19T04:13:19;6.70;55.60
55771;DHT22;41687;-33.234;-60.334;2022-07-19T04:15:47;6.60;55.50
55771;DHT22;41687;-33.234;-60.334;2022-07-19T04:18:15;6.70;55.40
55771;DHT22;41687;-33.234;-60.334;2022-07-19T04:20:44;6.70;55.50
55771;DHT22;41687;-33.234;-60.334;2022-07-19T04:23:11;6.60;55.40
55771;DHT22;41687;-33.234;-60.334;2022-07-19T04:25:39;6.60;55.50
55771;DHT22;41687;-33.234;-60.334;2022-07-19T04:28:07;6.60;55.70
55771;DHT22;41687;-33.234;-60.334;2022-07-19T04:30:35;6.50;55.80
55771;DHT22;41687;-33.234;-60.334;2022-07-19T04:33:03;6.50;56.00
55771;DHT22;41687;-33.234;-60.334;2022-07-19T04:35:30;6.40;56.00
55771;DHT22;41687;-33.234;-60.334;2022-07-19T04:37:59;6.40;56.00
55771;DHT22;41687;-33.234;-60.334;2022-07-19T04:40:26;6.40;56.40
55771;DHT22;41687;-33.234;-60.334;2022-07-19T04:42:54;6.40;56.20
55771;DHT22;41687;-33.234;-60.334;2022-07-19T04:45:22;6.40;56.20
55771;DHT22;41687;-33.234;-60.334;2022-07-19T04:47:50;6.40;56.20
55771;DHT22;41687;-33.234;-60.334;2022-07-19T04:50:18;6.40;56.30
55771;DHT22;41687;-33.234;-60.334;2022-07-19T04:52:45;6.40;56.20
55771;DHT22;41687;-33.234;-60.334;2022-07-19T04:55:13;6.30;56.30
55771;DHT22;41687;-33.234;-60.334;2022-07-19T04:57:42;6.30;56.40
55771;DHT22;41687;-33.234;-60.334;2022-07-19T05:00:11;6.30;56.20
55771;DHT22;41687;-33.234;-60.334;2022-07-19T05:02:39;6.30;56.30
55771;DHT22;41687;-33.234;-60.334;2022-07-19T05:05:06;6.40;56.30
55771;DHT22;41687;-33.234;-60.334;2022-07-19T05:07:35;6.40;56.30
55771;DHT22;41687;-33.234;-60.334;2022-07-19T05:10:04;6.40;56.40
55771;DHT22;41687;-33.234;-60.334;2022-07-19T05:12:32;6.30;56.20
55771;DHT22;41687;-33.234;-60.334;2022-07-19T05:15:00;6.20;56.50
55771;DHT22;41687;-33.234;-60.334;2022-07-19T05:17:28;6.20;56.70
55771;DHT22;41687;-33.234;-60.334;2022-07-19T05:19:56;6.10;56.70
55771;DHT22;41687;-33.234;-60.334;2022-07-19T05:22:24;6.10;56.80
55771;DHT22;41687;-33.234;-60.334;2022-07-19T05:24:53;6.00;56.90
55771;DHT22;41687;-33.234;-60.334;2022-07-19T05:27:23;6.00;57.10
55771;DHT22;41687;-33.234;-60.334;2022-07-19T05:29:50;6.00;57.30
55771;DHT22;41687;-33.234;-60.334;2022-07-19T05:32:18;6.00;57.20
55771;DHT22;41687;-33.234;-60.334;2022-07-19T05:34:46;6.00;57.20
55771;DHT22;41687;-33.234;-60.334;2022-07-19T05:37:14;6.00;57.20
55771;DHT22;41687;-33.234;-60.334;2022-07-19T05:39:42;5.90;57.20
55771;DHT22;41687;-33.234;-60.334;2022-07-19T05:42:09;5.90;57.40
55771;DHT22;41687;-33.234;-60.334;2022-07-19T05:44:37;5.90;57.50
55771;DHT22;41687;-33.234;-60.334;2022-07-19T05:47:05;5.70;57.50
55771;DHT22;41687;-33.234;-60.334;2022-07-19T05:49:33;5.70;57.60
55771;DHT22;41687;-33.234;-60.334;2022-07-19T05:52:01;5.70;57.50
55771;DHT22;41687;-33.234;-60.334;2022-07-19T05:54:28;5.70;57.60
55771;DHT22;41687;-33.234;-60.334;2022-07-19T05:56:56;5.70;57.60
55771;DHT22;41687;-33.234;-60.334;2022-07-19T05:59:24;5.70;57.60
55771;DHT22;41687;-33.234;-60.334;2022-07-19T06:01:52;5.70;57.70
55771;DHT22;41687;-33.234;-60.334;2022-07-19T06:04:20;5.60;57.70
55771;DHT22;41687;-33.234;-60.334;2022-07-19T06:06:48;5.50;57.80
55771;DHT22;41687;-33.234;-60.334;2022-07-19T06:09:16;5.60;57.70
55771;DHT22;41687;-33.234;-60.334;2022-07-19T06:11:43;5.50;57.90
55771;DHT22;41687;-33.234;-60.334;2022-07-19T06:14:11;5.40;58.10
55771;DHT22;41687;-33.234;-60.334;2022-07-19T06:16:39;5.30;58.10
55771;DHT22;41687;-33.234;-60.334;2022-07-19T06:19:08;5.30;58.20
55771;DHT22;41687;-33.234;-60.334;2022-07-19T06:21:37;5.40;58.20
55771;DHT22;41687;-33.234;-60.334;2022-07-19T06:24:05;5.30;58.30
55771;DHT22;41687;-33.234;-60.334;2022-07-19T06:26:34;5.30;58.40
55771;DHT22;41687;-33.234;-60.334;2022-07-19T06:29:01;5.40;58.30
55771;DHT22;41687;-33.234;-60.334;2022-07-19T06:31:29;5.40;58.30
55771;DHT22;41687;-33.234;-60.334;2022-07-19T06:33:56;5.40;58.40
55771;DHT22;41687;-33.234;-60.334;2022-07-19T06:36:24;5.30;58.50
55771;DHT22;41687;-33.234;-60.334;2022-07-19T06:38:54;5.20;58.60
55771;DHT22;41687;-33.234;-60.334;2022-07-19T06:41:22;5.20;58.60
55771;DHT22;41687;-33.234;-60.334;2022-07-19T06:43:50;5.20;58.60
55771;DHT22;41687;-33.234;-60.334;2022-07-19T06:46:18;5.10;58.80
55771;DHT22;41687;-33.234;-60.334;2022-07-19T06:48:46;5.10;58.60
55771;DHT22;41687;-33.234;-60.334;2022-07-19T06:51:14;5.00;58.90
55771;DHT22;41687;-33.234;-60.334;2022-07-19T06:53:41;5.00;58.90
55771;DHT22;41687;-33.234;-60.334;2022-07-19T06:56:09;5.00;58.90
55771;DHT22;41687;-33.234;-60.334;2022-07-19T06:58:37;4.90;58.80
55771;DHT22;41687;-33.234;-60.334;2022-07-19T07:01:05;4.90;58.80
55771;DHT22;41687;-33.234;-60.334;2022-07-19T07:03:32;4.90;59.00
55771;DHT22;41687;-33.234;-60.334;2022-07-19T07:06:01;4.90;59.10
55771;DHT22;41687;-33.234;-60.334;2022-07-19T07:08:28;5.00;59.20
55771;DHT22;41687;-33.234;-60.334;2022-07-19T07:10:56;5.00;59.20
55771;DHT22;41687;-33.234;-60.334;2022-07-19T07:13:24;5.00;59.00
55771;DHT22;41687;-33.234;-60.334;2022-07-19T07:15:52;5.00;59.10
55771;DHT22;41687;-33.234;-60.334;2022-07-19T07:18:19;5.00;59.20
55771;DHT22;41687;-33.234;-60.334;2022-07-19T07:20:47;4.90;59.00
55771;DHT22;41687;-33.234;-60.334;2022-07-19T07:23:14;4.90;59.20
55771;DHT22;41687;-33.234;-60.334;2022-07-19T07:25:43;4.90;59.40
55771;DHT22;41687;-33.234;-60.334;2022-07-19T07:28:10;4.90;59.50
55771;DHT22;41687;-33.234;-60.334;2022-07-19T07:30:38;4.90;59.50
55771;DHT22;41687;-33.234;-60.334;2022-07-19T07:33:06;4.90;59.80
55771;DHT22;41687;-33.234;-60.334;2022-07-19T07:35:34;5.00;59.80
55771;DHT22;41687;-33.234;-60.334;2022-07-19T07:38:02;5.00;59.60
55771;DHT22;41687;-33.234;-60.334;2022-07-19T07:40:29;5.00;59.60
55771;DHT22;41687;-33.234;-60.334;2022-07-19T07:42:57;5.10;59.80
55771;DHT22;41687;-33.234;-60.334;2022-07-19T07:45:25;5.10;59.60
55771;DHT22;41687;-33.234;-60.334;2022-07-19T07:47:53;5.10;59.60
55771;DHT22;41687;-33.234;-60.334;2022-07-19T07:50:21;5.10;59.60
55771;DHT22;41687;-33.234;-60.334;2022-07-19T07:52:48;5.10;59.40
55771;DHT22;41687;-33.234;-60.334;2022-07-19T07:55:16;5.10;59.30
55771;DHT22;41687;-33.234;-60.334;2022-07-19T07:57:43;5.00;59.70
55771;DHT22;41687;-33.234;-60.334;2022-07-19T08:00:12;5.00;59.70
55771;DHT22;41687;-33.234;-60.334;2022-07-19T08:02:43;4.90;59.60
55771;DHT22;41687;-33.234;-60.334;2022-07-19T08:05:12;4.90;59.80
55771;DHT22;41687;-33.234;-60.334;2022-07-19T08:07:40;4.80;59.80
55771;DHT22;41687;-33.234;-60.334;2022-07-19T08:10:09;4.80;60.00
55771;DHT22;41687;-33.234;-60.334;2022-07-19T08:12:37;4.80;60.00
55771;DHT22;41687;-33.234;-60.334;2022-07-19T08:15:06;4.70;60.30
55771;DHT22;41687;-33.234;-60.334;2022-07-19T08:17:34;4.80;60.20
55771;DHT22;41687;-33.234;-60.334;2022-07-19T08:20:02;4.80;60.10
55771;DHT22;41687;-33.234;-60.334;2022-07-19T08:22:29;4.70;60.40
55771;DHT22;41687;-33.234;-60.334;2022-07-19T08:24:57;4.70;60.30
55771;DHT22;41687;-33.234;-60.334;2022-07-19T08:27:25;4.70;60.40
55771;DHT22;41687;-33.234;-60.334;2022-07-19T08:29:53;4.70;60.30
55771;DHT22;41687;-33.234;-60.334;2022-07-19T08:32:20;4.70;60.30
55771;DHT22;41687;-33.234;-60.334;2022-07-19T08:34:48;4.70;60.60
55771;DHT22;41687;-33.234;-60.334;2022-07-19T08:37:16;4.60;60.40
55771;DHT22;41687;-33.234;-60.334;2022-07-19T08:39:44;4.60;60.40
55771;DHT22;41687;-33.234;-60.334;2022-07-19T08:42:12;4.60;60.60
55771;DHT22;41687;-33.234;-60.334;2022-07-19T08:44:41;4.50;60.60
55771;DHT22;41687;-33.234;-60.334;2022-07-19T08:47:10;4.50;61.00
55771;DHT22;41687;-33.234;-60.334;2022-07-19T08:49:41;4.50;60.70
55771;DHT22;41687;-33.234;-60.334;2022-07-19T08:52:09;4.50;60.80
55771;DHT22;41687;-33.234;-60.334;2022-07-19T08:54:37;4.50;60.80
55771;DHT22;41687;-33.234;-60.334;2022-07-19T08:57:05;4.40;60.80
55771;DHT22;41687;-33.234;-60.334;2022-07-19T08:59:52;4.40;61.10
55771;DHT22;41687;-33.234;-60.334;2022-07-19T09:02:19;4.40;60.90
55771;DHT22;41687;-33.234;-60.334;2022-07-19T09:05:04;4.40;60.90
55771;DHT22;41687;-33.234;-60.334;2022-07-19T09:07:39;4.40;61.20
55771;DHT22;41687;-33.234;-60.334;2022-07-19T09:10:21;4.40;61.50
55771;DHT22;41687;-33.234;-60.334;2022-07-19T09:13:11;4.40;61.30
55771;DHT22;41687;-33.234;-60.334;2022-07-19T09:20:51;4.40;60.90
55771;DHT22;41687;-33.234;-60.334;2022-07-19T09:23:20;4.40;61.10
55771;DHT22;41687;-33.234;-60.334;2022-07-19T09:28:19;4.40;61.30
55771;DHT22;41687;-33.234;-60.334;2022-07-19T09:30:50;4.30;61.50
55771;DHT22;41687;-33.234;-60.334;2022-07-19T09:33:29;4.30;61.50
55771;DHT22;41687;-33.234;-60.334;2022-07-19T09:36:11;4.30;61.70
55771;DHT22;41687;-33.234;-60.334;2022-07-19T09:38:39;4.30;61.80
55771;DHT22;41687;-33.234;-60.334;2022-07-19T09:41:17;4.30;61.70
55771;DHT22;41687;-33.234;-60.334;2022-07-19T09:51:37;4.40;61.90
55771;DHT22;41687;-33.234;-60.334;2022-07-19T09:54:07;4.40;61.90
55771;DHT22;41687;-33.234;-60.334;2022-07-19T09:56:38;4.40;61.90
55771;DHT22;41687;-33.234;-60.334;2022-07-19T09:59:07;4.40;61.90
55771;DHT22;41687;-33.234;-60.334;2022-07-19T10:01:36;4.40;61.90
55771;DHT22;41687;-33.234;-60.334;2022-07-19T10:04:10;4.40;62.00
55771;DHT22;41687;-33.234;-60.334;2022-07-19T10:06:40;4.40;62.20
55771;DHT22;41687;-33.234;-60.334;2022-07-19T10:09:11;4.40;62.30
55771;DHT22;41687;-33.234;-60.334;2022-07-19T10:11:40;4.40;62.30
55771;DHT22;41687;-33.234;-60.334;2022-07-19T10:14:09;4.50;62.50
55771;DHT22;41687;-33.234;-60.334;2022-07-19T10:19:47;4.50;63.60
55771;DHT22;41687;-33.234;-60.334;2022-07-19T10:22:18;4.60;63.70
55771;DHT22;41687;-33.234;-60.334;2022-07-19T10:24:52;4.50;63.40
55771;DHT22;41687;-33.234;-60.334;2022-07-19T10:32:45;4.60;64.50
55771;DHT22;41687;-33.234;-60.334;2022-07-19T10:35:21;4.60;63.90
55771;DHT22;41687;-33.234;-60.334;2022-07-19T10:37:54;4.50;64.40
55771;DHT22;41687;-33.234;-60.334;2022-07-19T10:43:18;4.50;65.00
55771;DHT22;41687;-33.234;-60.334;2022-07-19T10:48:46;4.60;65.10
55771;DHT22;41687;-33.234;-60.334;2022-07-19T10:51:31;4.60;65.20
55771;DHT22;41687;-33.234;-60.334;2022-07-19T10:54:08;4.60;65.50
55771;DHT22;41687;-33.234;-60.334;2022-07-19T10:56:39;4.60;65.50
55771;DHT22;41687;-33.234;-60.334;2022-07-19T10:59:11;4.70;66.00
55771;DHT22;41687;-33.234;-60.334;2022-07-19T11:01:55;4.70;66.60
55771;DHT22;41687;-33.234;-60.334;2022-07-19T11:04:31;4.80;67.40
55771;DHT22;41687;-33.234;-60.334;2022-07-19T11:09:58;4.90;67.90
55771;DHT22;41687;-33.234;-60.334;2022-07-19T11:14:58;5.30;69.70
55771;DHT22;41687;-33.234;-60.334;2022-07-19T11:17:26;5.40;70.10
55771;DHT22;41687;-33.234;-60.334;2022-07-19T11:20:09;5.50;71.70
55771;DHT22;41687;-33.234;-60.334;2022-07-19T11:22:41;5.60;72.30
55771;DHT22;41687;-33.234;-60.334;2022-07-19T11:25:11;5.70;72.10
55771;DHT22;41687;-33.234;-60.334;2022-07-19T11:27:46;5.90;72.00
55771;DHT22;41687;-33.234;-60.334;2022-07-19T11:30:15;6.10;72.90
55771;DHT22;41687;-33.234;-60.334;2022-07-19T11:32:51;6.30;72.90
55771;DHT22;41687;-33.234;-60.334;2022-07-19T11:35:19;6.80;72.90
55771;DHT22;41687;-33.234;-60.334;2022-07-19T11:37:47;7.50;71.00
55771;DHT22;41687;-33.234;-60.334;2022-07-19T11:40:14;8.20;68.30
55771;DHT22;41687;-33.234;-60.334;2022-07-19T11:42:44;9.10;66.70
55771;DHT22;41687;-33.234;-60.334;2022-07-19T11:45:25;10.60;64.00
55771;DHT22;41687;-33.234;-60.334;2022-07-19T11:47:55;12.10;61.30
55771;DHT22;41687;-33.234;-60.334;2022-07-19T11:50:25;13.20;59.60
55771;DHT22;41687;-33.234;-60.334;2022-07-19T11:52:54;14.30;57.20
55771;DHT22;41687;-33.234;-60.334;2022-07-19T11:55:24;14.80;56.60
55771;DHT22;41687;-33.234;-60.334;2022-07-19T11:57:54;15.50;56.10
55771;DHT22;41687;-33.234;-60.334;2022-07-19T12:00:23;16.20;55.10
55771;DHT22;41687;-33.234;-60.334;2022-07-19T12:03:01;16.50;54.90
55771;DHT22;41687;-33.234;-60.334;2022-07-19T12:05:38;17.30;52.70
55771;DHT22;41687;-33.234;-60.334;2022-07-19T12:08:08;17.70;52.50
55771;DHT22;41687;-33.234;-60.334;2022-07-19T12:10:41;17.90;52.40
55771;DHT22;41687;-33.234;-60.334;2022-07-19T12:13:28;18.10;51.60
55771;DHT22;41687;-33.234;-60.334;2022-07-19T12:16:07;18.20;51.70
55771;DHT22;41687;-33.234;-60.334;2022-07-19T12:18:56;18.20;52.10
55771;DHT22;41687;-33.234;-60.334;2022-07-19T12:29:36;18.30;51.40
55771;DHT22;41687;-33.234;-60.334;2022-07-19T12:32:09;18.30;50.00
55771;DHT22;41687;-33.234;-60.334;2022-07-19T12:34:58;17.70;51.50
55771;DHT22;41687;-33.234;-60.334;2022-07-19T12:42:56;16.40;53.80
55771;DHT22;41687;-33.234;-60.334;2022-07-19T12:47:57;15.90;55.20
55771;DHT22;41687;-33.234;-60.334;2022-07-19T12:50:30;15.80;56.30
55771;DHT22;41687;-33.234;-60.334;2022-07-19T12:53:01;15.60;55.00
55771;DHT22;41687;-33.234;-60.334;2022-07-19T12:55:30;15.20;56.00
55771;DHT22;41687;-33.234;-60.334;2022-07-19T12:58:04;14.70;56.90
55771;DHT22;41687;-33.234;-60.334;2022-07-19T13:00:33;14.20;57.50
55771;DHT22;41687;-33.234;-60.334;2022-07-19T13:03:02;13.80;58.30
55771;DHT22;41687;-33.234;-60.334;2022-07-19T13:05:32;13.60;58.50
55771;DHT22;41687;-33.234;-60.334;2022-07-19T13:08:00;13.50;58.40
55771;DHT22;41687;-33.234;-60.334;2022-07-19T13:10:29;13.20;58.90
55771;DHT22;41687;-33.234;-60.334;2022-07-19T13:12:57;12.90;59.50
55771;DHT22;41687;-33.234;-60.334;2022-07-19T13:15:25;12.70;60.00
55771;DHT22;41687;-33.234;-60.334;2022-07-19T13:17:53;12.60;60.40
55771;DHT22;41687;-33.234;-60.334;2022-07-19T13:20:21;12.60;60.40
55771;DHT22;41687;-33.234;-60.334;2022-07-19T13:22:49;12.40;60.80
55771;DHT22;41687;-33.234;-60.334;2022-07-19T13:25:17;12.30;61.30
55771;DHT22;41687;-33.234;-60.334;2022-07-19T13:27:45;12.10;61.80
55771;DHT22;41687;-33.234;-60.334;2022-07-19T13:30:12;12.00;62.20
55771;DHT22;41687;-33.234;-60.334;2022-07-19T13:32:40;11.90;62.20
55771;DHT22;41687;-33.234;-60.334;2022-07-19T13:35:08;11.90;61.90
55771;DHT22;41687;-33.234;-60.334;2022-07-19T13:37:37;11.70;62.70
55771;DHT22;41687;-33.234;-60.334;2022-07-19T13:40:05;11.80;63.40
55771;DHT22;41687;-33.234;-60.334;2022-07-19T13:42:33;11.90;63.10
55771;DHT22;41687;-33.234;-60.334;2022-07-19T13:45:00;11.90;62.80
55771;DHT22;41687;-33.234;-60.334;2022-07-19T13:47:28;12.00;63.10
55771;DHT22;41687;-33.234;-60.334;2022-07-19T13:49:56;12.00;63.00
55771;DHT22;41687;-33.234;-60.334;2022-07-19T13:52:26;11.90;63.60
55771;DHT22;41687;-33.234;-60.334;2022-07-19T13:54:53;11.90;63.70
55771;DHT22;41687;-33.234;-60.334;2022-07-19T13:57:22;11.90;64.00
55771;DHT22;41687;-33.234;-60.334;2022-07-19T13:59:56;12.00;64.00
55771;DHT22;41687;-33.234;-60.334;2022-07-19T14:02:28;12.00;64.00
55771;DHT22;41687;-33.234;-60.334;2022-07-19T14:04:56;12.00;63.90
55771;DHT22;41687;-33.234;-60.334;2022-07-19T14:07:29;12.00;63.90
55771;DHT22;41687;-33.234;-60.334;2022-07-19T14:09:59;12.10;64.20
55771;DHT22;41687;-33.234;-60.334;2022-07-19T14:12:37;11.90;64.00
55771;DHT22;41687;-33.234;-60.334;2022-07-19T14:15:06;12.00;64.40
55771;DHT22;41687;-33.234;-60.334;2022-07-19T14:17:42;12.00;64.60
55771;DHT22;41687;-33.234;-60.334;2022-07-19T14:20:11;12.00;65.10
55771;DHT22;41687;-33.234;-60.334;2022-07-19T14:22:46;12.10;65.10
55771;DHT22;41687;-33.234;-60.334;2022-07-19T14:25:21;12.20;65.10
55771;DHT22;41687;-33.234;-60.334;2022-07-19T14:27:56;12.40;64.80
55771;DHT22;41687;-33.234;-60.334;2022-07-19T14:30:32;12.30;64.60
55771;DHT22;41687;-33.234;-60.334;2022-07-19T14:33:32;12.40;64.00
55771;DHT22;41687;-33.234;-60.334;2022-07-19T14:36:07;12.40;64.70
55771;DHT22;41687;-33.234;-60.334;2022-07-19T14:38:37;12.30;64.80
55771;DHT22;41687;-33.234;-60.334;2022-07-19T14:41:05;12.40;64.30
55771;DHT22;41687;-33.234;-60.334;2022-07-19T14:43:34;12.50;64.20
55771;DHT22;41687;-33.234;-60.334;2022-07-19T14:46:29;12.50;64.50
55771;DHT22;41687;-33.234;-60.334;2022-07-19T14:49:01;12.60;64.60
55771;DHT22;41687;-33.234;-60.334;2022-07-19T14:51:35;12.50;64.00
55771;DHT22;41687;-33.234;-60.334;2022-07-19T14:54:03;12.50;63.80
55771;DHT22;41687;-33.234;-60.334;2022-07-19T14:56:33;12.50;64.10
55771;DHT22;41687;-33.234;-60.334;2022-07-19T14:59:05;12.70;64.10
55771;DHT22;41687;-33.234;-60.334;2022-07-19T15:01:37;12.70;63.60
55771;DHT22;41687;-33.234;-60.334;2022-07-19T15:04:11;12.80;63.10
55771;DHT22;41687;-33.234;-60.334;2022-07-19T15:06:42;12.80;62.50
55771;DHT22;41687;-33.234;-60.334;2022-07-19T15:09:12;12.90;62.30
55771;DHT22;41687;-33.234;-60.334;2022-07-19T15:11:41;12.80;62.30
55771;DHT22;41687;-33.234;-60.334;2022-07-19T15:14:12;12.90;61.80
55771;DHT22;41687;-33.234;-60.334;2022-07-19T15:16:51;12.90;61.30
55771;DHT22;41687;-33.234;-60.334;2022-07-19T15:19:24;12.90;61.30
55771;DHT22;41687;-33.234;-60.334;2022-07-19T15:21:56;13.00;61.10
55771;DHT22;41687;-33.234;-60.334;2022-07-19T15:24:27;13.00;60.90
55771;DHT22;41687;-33.234;-60.334;2022-07-19T15:27:16;13.00;60.60
55771;DHT22;41687;-33.234;-60.334;2022-07-19T15:29:47;13.10;60.70
55771;DHT22;41687;-33.234;-60.334;2022-07-19T15:32:17;13.10;60.70
55771;DHT22;41687;-33.234;-60.334;2022-07-19T15:34:46;13.10;60.50
55771;DHT22;41687;-33.234;-60.334;2022-07-19T15:37:17;13.20;60.50
55771;DHT22;41687;-33.234;-60.334;2022-07-19T15:39:55;13.20;60.60
55771;DHT22;41687;-33.234;-60.334;2022-07-19T15:42:22;13.20;60.50
55771;DHT22;41687;-33.234;-60.334;2022-07-19T15:44:54;13.30;59.30
55771;DHT22;41687;-33.234;-60.334;2022-07-19T15:47:28;13.20;59.80
55771;DHT22;41687;-33.234;-60.334;2022-07-19T15:49:58;13.30;60.20
55771;DHT22;41687;-33.234;-60.334;2022-07-19T16:08:55;13.60;58.40
55771;DHT22;41687;-33.234;-60.334;2022-07-19T16:11:37;13.50;58.30
55771;DHT22;41687;-33.234;-60.334;2022-07-19T16:14:05;13.60;58.10
55771;DHT22;41687;-33.234;-60.334;2022-07-19T16:16:36;13.60;58.20
55771;DHT22;41687;-33.234;-60.334;2022-07-19T16:19:11;13.60;57.90
55771;DHT22;41687;-33.234;-60.334;2022-07-19T16:21:41;13.70;57.40